Sebastian Garcia

Recruteur - Danubio
20 Févr 2028
Dimanche
Processus

Personnalité

Adaptabilité (19) Ambition (6) Controverse (9) Loyauté (4) Pression (16) Professionnalisme (10) Sportivité (4) Tempérament (4)

Profil

Style d'entraînement Démocratique
Diplôme Continental C
Détermination 11
Gestion des joueurs 12
Motivation 9
Discipline 11
Satisfaction professionnelle
100%
Fatigue
0%
Rôle Recruteur
Salaire 39.6K p/s
Contrat 14.03.2028

Performance

Comportement Bon
Efficacité de l'entraînement
35%
Développement des joueurs
30%
Prévention des blessures
20%
Mise en place tactique
55%

Événements récents

Négociation de contrat entamée maintenant
A participé à une réunion de recrutement maintenant
Négociation de contrat entamée maintenant
Négociation de contrat entamée maintenant
Négociation de contrat entamée maintenant
Négociation de contrat entamée 7j
Négociation de contrat entamée 7j
Négociation de contrat entamée 7j

Suivi en cours

127
Joueur Club Statut Capacité Confiance Observé Dernière observation Dernier vote
Samuel Lucero Defensa y Justicia Actif 113 / 114 40% 1 30.05.2027 -
Calum Agius Crewe Alexandra Actif 92 / 99 40% 3 29.05.2027 -
Franz-Ethan Meichtry Genoa Actif 125 / 136 40% 1 29.05.2027 -
Kamarni Ryan Burton Albion Actif 96 / 101 40% 1 29.05.2027 -
Lander Astiazarán Real Sociedad Actif 100 / 109 40% 4 25.05.2027 -
Riley Owen Trento Actif 99 / 99 40% 1 24.05.2027 -
Mfundo Vilakazi Kaizer Chiefs Actif 112 / 115 40% 1 24.05.2027 -
Hazeem Bakre Crawley Town Actif 81 / 99 40% 1 24.05.2027 -
Leo Castledine Middlesbrough Actif 133 / 120 40% 3 22.05.2027 -
Sascha Britschgi Padova Actif 113 / 129 40% 1 22.05.2027 -
Monty Batlhabane Polokwane City Actif 98 / 86 40% 1 20.05.2027 -
Kutlwano Letlhaku Ajax Cape Town Actif 114 / 116 40% 1 18.05.2027 -
Ethan Williams Peterborough United Actif 117 / 119 40% 1 18.05.2027 -
Shea Lacey Wolverhampton Actif 127 / 142 40% 2 16.05.2027 -
Joel McGregor Swindon Town Actif 98 / 87 40% 2 16.05.2027 -
Johan Manzambi Newcastle United Actif 134 / 140 40% 1 14.05.2027 -
Matías Gómez Granada Actif 113 / 107 40% 1 12.05.2027 -
Jesús Rodríguez Como Actif 151 / 135 40% 2 09.05.2027 -
Othmane Maamma Watford Actif 120 / 131 40% 2 09.05.2027 -
Oscar Schwartau Norwich City Actif 118 / 120 40% 1 07.05.2027 -
Jofre Torrents Ajax Actif 119 / 113 40% 1 06.05.2027 -
Jayden Addai Como Actif 133 / 141 40% 1 06.05.2027 -
Amaury Morales Pumas UNAM Actif 106 / 130 40% 1 04.05.2027 -
Christos Mouzakitis Hull City Actif 133 / 135 40% 2 25.04.2027 -
Lynden Edhart Cambuur Actif 111 / 117 40% 1 17.04.2027 -
Tyreece Campbell Charlton Athletic Actif 115 / 130 40% 4 12.04.2027 -
Aune Heggebø West Bromwich Albion Actif 122 / 122 40% 2 11.04.2027 -
Bojan Radulović Huddersfield Town Actif 109 / 120 40% 3 11.04.2027 -
Morgan Whittaker Middlesbrough Actif 134 / 134 40% 3 11.04.2027 -
Christian Saydee Wigan Athletic Actif 112 / 127 40% 3 10.04.2027 -
Mandla Mahlangu Ajax Cape Town Actif 102 / 108 40% 4 10.04.2027 -
Ekain Orobengoa Real Sociedad Actif 99 / 107 40% 3 10.04.2027 -
Ishmael Addo Heart of Lions Actif 84 / 103 40% 1 09.04.2027 -
Lewis McCann Fleetwood Town Actif 104 / 91 40% 2 08.04.2027 -
Luis Vázquez Birmingham Actif 137 / 135 40% 3 08.04.2027 -
Kwame Opoku Asante Kotoko Actif 96 / 95 40% 4 07.04.2027 -
Zack Nelson Bromley Actif 102 / 105 40% 1 07.04.2027 -
David Ozoh Derby County Actif 122 / 117 40% 1 05.04.2027 -
Dávid Strelec Middlesbrough Actif 134 / 148 40% 1 31.03.2027 -
Tom Cannon Sheffield United Actif 124 / 133 40% 1 31.03.2027 -
Sam Bell Bristol City Actif 114 / 130 40% 2 29.03.2027 -
Mohammed Yahaya Great Olympics Actif 92 / 88 40% 2 29.03.2027 -
Ilyas Ansah Hull City Actif 129 / 148 40% 1 29.03.2027 -
Evidence Makgopa Orlando Pirates Actif 110 / 122 40% 5 27.03.2027 -
Yaw Mensah Hasaacas Actif 88 / 94 40% 1 27.03.2027 -
Tyrese Campbell Sheffield United Actif 125 / 135 40% 2 24.03.2027 -
Mathias Jørgensen Blackburn Rovers Actif 121 / 125 40% 3 19.03.2027 -
Juan Álvarez Uruguay Montevideo Actif 94 / 94 30% 1 / 1m 17.03.2027 -
Will Lankshear Middlesbrough Actif 121 / 112 40% 1 16.03.2027 -
Lee Bonis Chesterfield Actif 103 / 106 40% 3 14.03.2027 -
Cameron Archer Southampton Actif 131 / 135 40% 2 14.03.2027 -
Lorent Tolaj Plymouth Argyle Actif 124 / 129 40% 2 08.03.2027 -
Isaac Essien WAFA Actif 92 / 81 40% 2 08.03.2027 -
Bradley Fink Wycombe Wanderers Actif 107 / 108 40% 1 07.03.2027 -
Dom Ballard Leyton Orient Actif 118 / 112 40% 2 01.03.2027 -
Jayden Wareham Barnet Actif 99 / 107 40% 1 25.02.2027 -
Job Ochieng Real Sociedad Actif 101 / 114 40% 1 25.02.2027 -
Kelly Saravanan Salford City Actif 106 / 120 40% 1 21.02.2027 -
Danyil Alefirenko Chornomorets Actif 109 / 99 40% 2 19.02.2027 -
Richard Koné Queens Park Rangers Actif 124 / 120 40% 2 14.02.2027 -
José Martínes CSKA 1948 Actif 110 / 104 40% 1 07.02.2027 -
Malik Mothersille Stockport County Actif 108 / 110 40% 1 07.02.2027 -
Bongani Mothiba SuperSport United Actif 82 / 86 40% 1 07.02.2027 -
Anderson Gutiérrez Chelyabinsk Actif 94 / 92 40% 1 06.02.2027 -
Kenan Dervišagić Floriana Actif 94 / 91 40% 1 06.02.2027 -
Robert Mizo Ashanti Gold Actif 106 / 91 40% 3 01.02.2027 -
Ihor Krasnopir Polissia Actif 120 / 119 40% 1 01.02.2027 -
Etiosa Ighodaro Kaizer Chiefs Actif 119 / 106 40% 1 26.01.2027 -
Nicolás Andereggen Ethnikos Achnas Actif 118 / 104 40% 1 23.01.2027 -
Leandro Godoy CSKA Sofia Actif 120 / 135 40% 1 20.01.2027 -
Nicolás Cordero Aldosivi Actif 120 / 113 40% 1 18.01.2027 -
Vyacheslav Grulev Nizhniy Novgorod Actif 119 / 105 40% 1 18.01.2027 -
Ammar Ramadan DAC Dunajska Streda Actif 117 / 115 40% 1 17.01.2027 -
Juan Manuel Boselli Krasnodar Actif 115 / 131 40% 1 16.01.2027 -
Harry Leonard Peterborough United Actif 107 / 124 40% 1 16.01.2027 -
Yaroslav Gladyshev Dinamo Moscow Actif 123 / 111 40% 1 15.01.2027 -
Andrés Dieppa Metalurh Zaporizhzhia Actif 93 / 79 40% 1 12.01.2027 -
Luca Martínez Dupuy Godoy Cruz Actif 126 / 121 40% 1 12.01.2027 -
George Earthy Reading Actif 108 / 129 40% 1 28.12.2026 -
Augusto Schott Talleres Actif 121 / 113 40% 2 14.12.2026 -
Alex Vigo Independiente Rivadavia Actif 119 / 127 40% 3 14.12.2026 -
Tomás González Piast Actif 119 / 130 40% 1 14.12.2026 -
Alan Lescano Argentinos Juniors Actif 136 / 132 40% 1 30.11.2026 -
Tomás O'Connor Gimnasia y Esgrima Actif 123 / 131 40% 2 27.11.2026 -
Aarón Molinas Defensa y Justicia Actif 132 / 119 40% 3 27.11.2026 -
Manuel Mónaco Sarmiento Actif 122 / 110 40% 3 26.11.2026 -
Franco Watson Lanús Actif 123 / 129 40% 2 26.11.2026 -
Sebastián Medina Tigre Actif 118 / 124 40% 2 26.11.2026 -
Iñaki Larthirigoyen San Telmo Actif 113 / 129 40% 1 24.11.2026 -
Oswin Appollis Orlando Pirates Actif 126 / 106 40% 1 24.11.2026 -
Juan Velázquez Belgrano Actif 124 / 119 40% 2 22.11.2026 -
Pedro Ramírez Deportivo Riestra Actif 115 / 110 40% 1 22.11.2026 -
Fernando Martínez Central Córdoba SdE Actif 118 / 124 40% 2 21.11.2026 -
Mauro Valiente Estudiantes Actif 115 / 109 40% 2 21.11.2026 -
Marcelo Allende Mamelodi Sundowns Actif 123 / 141 40% 1 21.11.2026 -
Siro Rosané Estudiantes Actif 116 / 123 40% 1 20.11.2026 -
Juan Bisanz Huracán Actif 125 / 122 40% 1 16.11.2026 -
Manuel Duarte Barracas Central Actif 115 / 108 40% 1 16.11.2026 -
Stefano Moreyra Independiente Rivadavia Actif 121 / 124 40% 1 14.11.2026 -
Alex Luna Instituto Actif 122 / 138 40% 1 14.11.2026 -
Jherson Mosquera Newell's Old Boys Actif 123 / 118 40% 1 14.11.2026 -
Gastón Moreyra Almirante Brown Actif 111 / 109 40% 2 13.11.2026 -
Santiago González Tigre Actif 123 / 137 40% 2 13.11.2026 -
Tshepang Moremi Orlando Pirates Actif 109 / 114 40% 2 12.11.2026 -
Christian Krasnodar Actif 130 / 118 40% 1 12.11.2026 -
Mariano Bracamonte Deportivo Riestra Actif 120 / 123 40% 1 06.11.2026 -
Matías Fernández Independiente Rivadavia Actif 120 / 117 40% 3 05.11.2026 -
Yuber Quiñónes Deportivo Pereira Actif 113 / 125 40% 1 05.11.2026 -
Mandla Erasmus SuperSport United Actif 121 / 131 40% 2 03.11.2026 -
Juan Rocca Gimnasia y Tiro Actif 112 / 98 40% 3 03.11.2026 -
Ignacio Rodríguez Racing Club Actif 119 / 126 40% 2 01.11.2026 -
Rodrigo Herrera Newell's Old Boys Actif 118 / 116 40% 2 31.10.2026 -
Axel Batista Quilmes Actif 109 / 117 40% 1 31.10.2026 -
Misael Sosa Godoy Cruz Actif 108 / 111 40% 1 29.10.2026 -
Sebastián Jaurena San Martín SJ Actif 113 / 122 40% 1 28.10.2026 -
Matías Pellegrini Vélez Actif 120 / 122 40% 1 28.10.2026 -
Franco Díaz Temperley Actif 119 / 124 40% 2 27.10.2026 -
Gonzalo Ríos Independiente Rivadavia Actif 119 / 117 40% 2 25.10.2026 -
Tomás Silva Platense Actif 128 / 123 40% 1 25.10.2026 -
Matías Bergara Nueva Chicago Actif 115 / 122 40% 1 12.10.2026 -
Ramón González Almirante Brown Actif 108 / 117 40% 1 12.10.2026 -
Pedro Souto Temperley Actif 115 / 113 40% 1 09.10.2026 -
Francisco Maidana Gimnasia y Esgrima Actif 111 / 107 40% 1 09.10.2026 -
Iván Tapia Barracas Central Actif 119 / 116 40% 1 08.10.2026 -
Imanol Machuca Independiente Actif 124 / 125 40% 1 07.10.2026 -
Augusto Berrondo Tristán Suárez Actif 110 / 111 40% 1 05.10.2026 -
Freddy Mina La Equidad Actif 123 / 119 40% 1 03.08.2026 -